sensor_id;sensor_type;location;lat;lon;timestamp;pressure;altitude;pressure_sealevel;temperature;humidity
37066;BME280;22981;43.080;25.550;2022-11-04T00:02:09;99740.22;;;8.46;63.21
37066;BME280;22981;43.080;25.550;2022-11-04T00:04:37;99730.58;;;8.45;63.17
37066;BME280;22981;43.080;25.550;2022-11-04T00:07:04;99725.03;;;8.46;63.15
37066;BME280;22981;43.080;25.550;2022-11-04T00:09:33;99726.49;;;8.49;63.12
37066;BME280;22981;43.080;25.550;2022-11-04T00:12:01;99723.61;;;8.50;63.09
37066;BME280;22981;43.080;25.550;2022-11-04T00:14:47;99723.39;;;8.45;63.15
37066;BME280;22981;43.080;25.550;2022-11-04T00:17:14;99719.23;;;8.36;63.11
37066;BME280;22981;43.080;25.550;2022-11-04T00:19:46;99726.84;;;8.22;63.42
37066;BME280;22981;43.080;25.550;2022-11-04T00:22:31;99731.03;;;8.14;63.57
37066;BME280;22981;43.080;25.550;2022-11-04T00:25:17;99729.52;;;8.04;63.52
37066;BME280;22981;43.080;25.550;2022-11-04T00:28:13;99729.88;;;7.95;63.62
37066;BME280;22981;43.080;25.550;2022-11-04T00:31:00;99729.52;;;7.87;63.85
37066;BME280;22981;43.080;25.550;2022-11-04T00:33:30;99729.00;;;7.88;63.81
37066;BME280;22981;43.080;25.550;2022-11-04T00:35:57;99723.50;;;7.89;63.78
37066;BME280;22981;43.080;25.550;2022-11-04T00:38:25;99724.45;;;7.92;63.75
37066;BME280;22981;43.080;25.550;2022-11-04T00:40:53;99720.03;;;7.95;63.69
37066;BME280;22981;43.080;25.550;2022-11-04T00:43:20;99719.95;;;7.99;63.61
37066;BME280;22981;43.080;25.550;2022-11-04T00:45:48;99709.94;;;8.01;63.54
37066;BME280;22981;43.080;25.550;2022-11-04T00:48:15;99714.11;;;8.00;63.58
37066;BME280;22981;43.080;25.550;2022-11-04T00:50:43;99717.93;;;8.01;63.62
37066;BME280;22981;43.080;25.550;2022-11-04T00:53:10;99711.78;;;8.01;63.60
37066;BME280;22981;43.080;25.550;2022-11-04T00:55:38;99712.39;;;8.03;63.55
37066;BME280;22981;43.080;25.550;2022-11-04T00:58:05;99711.58;;;8.02;63.47
37066;BME280;22981;43.080;25.550;2022-11-04T01:00:33;99708.34;;;7.96;63.65
37066;BME280;22981;43.080;25.550;2022-11-04T01:03:01;99706.70;;;7.95;63.71
37066;BME280;22981;43.080;25.550;2022-11-04T01:05:28;99707.34;;;7.97;63.74
37066;BME280;22981;43.080;25.550;2022-11-04T01:07:56;99698.40;;;7.94;63.74
37066;BME280;22981;43.080;25.550;2022-11-04T01:10:23;99697.79;;;7.92;63.74
37066;BME280;22981;43.080;25.550;2022-11-04T01:12:51;99691.20;;;7.88;63.75
37066;BME280;22981;43.080;25.550;2022-11-04T01:15:19;99619.08;;;7.44;63.81
37066;BME280;22981;43.080;25.550;2022-11-04T01:17:47;99687.15;;;7.82;63.85
37066;BME280;22981;43.080;25.550;2022-11-04T01:20:14;99684.12;;;7.74;63.98
37066;BME280;22981;43.080;25.550;2022-11-04T01:22:42;99680.92;;;7.68;64.16
37066;BME280;22981;43.080;25.550;2022-11-04T01:25:10;99679.39;;;7.69;64.21
37066;BME280;22981;43.080;25.550;2022-11-04T01:27:37;99684.05;;;7.61;64.35
37066;BME280;22981;43.080;25.550;2022-11-04T01:30:06;99681.69;;;7.62;64.45
37066;BME280;22981;43.080;25.550;2022-11-04T01:32:34;99680.48;;;7.64;64.40
37066;BME280;22981;43.080;25.550;2022-11-04T01:35:01;99677.95;;;7.67;64.35
37066;BME280;22981;43.080;25.550;2022-11-04T01:37:29;99687.38;;;7.69;64.38
37066;BME280;22981;43.080;25.550;2022-11-04T01:39:57;99692.33;;;7.72;64.30
37066;BME280;22981;43.080;25.550;2022-11-04T01:42:24;99697.97;;;7.73;64.30
37066;BME280;22981;43.080;25.550;2022-11-04T01:44:55;99690.10;;;7.76;64.21
37066;BME280;22981;43.080;25.550;2022-11-04T01:47:39;99683.09;;;7.75;64.14
37066;BME280;22981;43.080;25.550;2022-11-04T01:50:13;99686.10;;;7.76;64.05
37066;BME280;22981;43.080;25.550;2022-11-04T01:52:44;99682.80;;;7.74;63.89
37066;BME280;22981;43.080;25.550;2022-11-04T01:55:15;99682.19;;;7.72;63.90
37066;BME280;22981;43.080;25.550;2022-11-04T01:57:44;99673.55;;;7.70;63.93
37066;BME280;22981;43.080;25.550;2022-11-04T02:00:13;99661.98;;;7.73;63.95
37066;BME280;22981;43.080;25.550;2022-11-04T02:02:47;99656.05;;;7.71;63.96
37066;BME280;22981;43.080;25.550;2022-11-04T02:05:12;99654.05;;;7.63;64.20
37066;BME280;22981;43.080;25.550;2022-11-04T02:07:40;99643.26;;;7.60;64.34
37066;BME280;22981;43.080;25.550;2022-11-04T02:10:08;99638.45;;;7.60;64.42
37066;BME280;22981;43.080;25.550;2022-11-04T02:12:36;99644.05;;;7.54;64.53
37066;BME280;22981;43.080;25.550;2022-11-04T02:15:23;99634.47;;;7.49;64.74
37066;BME280;22981;43.080;25.550;2022-11-04T02:20:27;99628.37;;;7.55;64.86
37066;BME280;22981;43.080;25.550;2022-11-04T02:34:09;99635.32;;;7.49;65.09
37066;BME280;22981;43.080;25.550;2022-11-04T02:39:17;99633.14;;;7.49;64.95
37066;BME280;22981;43.080;25.550;2022-11-04T02:41:54;99630.68;;;7.47;65.07
37066;BME280;22981;43.080;25.550;2022-11-04T02:44:33;99632.06;;;7.54;65.01
37066;BME280;22981;43.080;25.550;2022-11-04T02:49:51;99622.25;;;7.61;64.87
37066;BME280;22981;43.080;25.550;2022-11-04T02:52:28;99617.95;;;7.60;64.92
37066;BME280;22981;43.080;25.550;2022-11-04T02:55:10;99610.67;;;7.58;64.90
37066;BME280;22981;43.080;25.550;2022-11-04T02:57:39;99611.16;;;7.58;64.92
37066;BME280;22981;43.080;25.550;2022-11-04T03:00:10;99607.67;;;7.57;64.92
37066;BME280;22981;43.080;25.550;2022-11-04T03:02:50;99607.80;;;7.60;64.95
37066;BME280;22981;43.080;25.550;2022-11-04T03:05:18;99607.59;;;7.61;64.90
37066;BME280;22981;43.080;25.550;2022-11-04T03:07:48;99614.25;;;7.61;64.87
37066;BME280;22981;43.080;25.550;2022-11-04T03:10:26;99614.47;;;7.60;64.84
37066;BME280;22981;43.080;25.550;2022-11-04T03:13:13;99610.70;;;7.47;64.84
37066;BME280;22981;43.080;25.550;2022-11-04T03:15:23;99612.47;;;7.34;65.09
37066;BME280;22981;43.080;25.550;2022-11-04T03:17:58;99610.08;;;7.28;65.36
37066;BME280;22981;43.080;25.550;2022-11-04T03:20:25;99613.56;;;7.28;65.36
37066;BME280;22981;43.080;25.550;2022-11-04T03:22:55;99609.98;;;7.32;65.30
37066;BME280;22981;43.080;25.550;2022-11-04T03:25:29;99603.52;;;7.31;65.29
37066;BME280;22981;43.080;25.550;2022-11-04T03:30:48;99608.98;;;7.33;65.27
37066;BME280;22981;43.080;25.550;2022-11-04T03:35:56;99597.81;;;7.34;65.17
37066;BME280;22981;43.080;25.550;2022-11-04T03:38:24;99597.52;;;7.33;65.18
37066;BME280;22981;43.080;25.550;2022-11-04T03:40:52;99597.00;;;7.33;65.22
37066;BME280;22981;43.080;25.550;2022-11-04T03:43:24;99590.00;;;7.32;65.27
37066;BME280;22981;43.080;25.550;2022-11-04T03:45:53;99585.16;;;7.25;65.32
37066;BME280;22981;43.080;25.550;2022-11-04T03:48:22;99588.28;;;7.18;65.37
37066;BME280;22981;43.080;25.550;2022-11-04T03:50:50;99580.06;;;7.13;65.49
37066;BME280;22981;43.080;25.550;2022-11-04T03:53:20;99580.27;;;7.11;65.54
37066;BME280;22981;43.080;25.550;2022-11-04T04:01:24;99584.26;;;7.11;65.28
37066;BME280;22981;43.080;25.550;2022-11-04T04:06:29;99590.82;;;6.87;65.59
37066;BME280;22981;43.080;25.550;2022-11-04T04:09:00;99596.34;;;6.86;65.69
37066;BME280;22981;43.080;25.550;2022-11-04T04:11:40;99584.48;;;6.88;65.65
37066;BME280;22981;43.080;25.550;2022-11-04T04:16:45;99582.39;;;6.94;65.51
37066;BME280;22981;43.080;25.550;2022-11-04T04:19:19;99579.91;;;6.93;65.47
37066;BME280;22981;43.080;25.550;2022-11-04T04:22:04;99583.72;;;6.94;65.51
37066;BME280;22981;43.080;25.550;2022-11-04T04:24:36;99577.69;;;6.96;65.45
37066;BME280;22981;43.080;25.550;2022-11-04T04:27:15;99573.08;;;6.94;65.37
37066;BME280;22981;43.080;25.550;2022-11-04T04:30:02;99571.84;;;6.97;65.36
37066;BME280;22981;43.080;25.550;2022-11-04T04:32:36;99577.07;;;6.94;65.38
37066;BME280;22981;43.080;25.550;2022-11-04T04:34:59;99578.57;;;6.93;65.45
37066;BME280;22981;43.080;25.550;2022-11-04T04:37:45;99576.25;;;6.94;65.47
37066;BME280;22981;43.080;25.550;2022-11-04T04:40:16;99573.45;;;6.91;65.47
37066;BME280;22981;43.080;25.550;2022-11-04T04:43:02;99577.28;;;6.82;65.61
37066;BME280;22981;43.080;25.550;2022-11-04T04:45:53;99584.09;;;6.81;65.59
37066;BME280;22981;43.080;25.550;2022-11-04T04:48:21;99581.84;;;6.67;65.68
37066;BME280;22981;43.080;25.550;2022-11-04T04:50:51;99581.39;;;6.63;65.81
37066;BME280;22981;43.080;25.550;2022-11-04T04:53:22;99584.77;;;6.61;65.89
37066;BME280;22981;43.080;25.550;2022-11-04T04:55:49;99581.91;;;6.63;65.82
37066;BME280;22981;43.080;25.550;2022-11-04T04:58:17;99581.97;;;6.59;65.91
37066;BME280;22981;43.080;25.550;2022-11-04T05:00:45;99585.79;;;6.60;65.92
37066;BME280;22981;43.080;25.550;2022-11-04T05:03:12;99578.12;;;6.61;65.89
37066;BME280;22981;43.080;25.550;2022-11-04T05:05:40;99580.91;;;6.64;65.83
37066;BME280;22981;43.080;25.550;2022-11-04T05:08:07;99577.85;;;6.67;65.81
37066;BME280;22981;43.080;25.550;2022-11-04T05:10:36;99580.45;;;6.71;65.71
37066;BME280;22981;43.080;25.550;2022-11-04T05:13:03;99576.77;;;6.72;65.71
37066;BME280;22981;43.080;25.550;2022-11-04T05:15:49;99571.27;;;6.73;65.65
37066;BME280;22981;43.080;25.550;2022-11-04T05:18:16;99577.92;;;6.73;65.70
37066;BME280;22981;43.080;25.550;2022-11-04T05:20:44;99585.66;;;6.68;65.70
37066;BME280;22981;43.080;25.550;2022-11-04T05:23:12;99588.56;;;6.63;65.87
37066;BME280;22981;43.080;25.550;2022-11-04T05:25:40;99594.90;;;6.62;65.99
37066;BME280;22981;43.080;25.550;2022-11-04T05:28:08;99594.84;;;6.66;65.94
37066;BME280;22981;43.080;25.550;2022-11-04T05:30:36;99600.66;;;6.65;65.85
37066;BME280;22981;43.080;25.550;2022-11-04T05:33:03;99597.50;;;6.66;65.90
37066;BME280;22981;43.080;25.550;2022-11-04T05:35:32;99599.72;;;6.73;65.85
37066;BME280;22981;43.080;25.550;2022-11-04T05:38:00;99595.25;;;6.80;65.71
37066;BME280;22981;43.080;25.550;2022-11-04T05:40:27;99591.95;;;6.89;65.54
37066;BME280;22981;43.080;25.550;2022-11-04T05:42:57;99589.66;;;6.96;65.47
37066;BME280;22981;43.080;25.550;2022-11-04T05:45:26;99587.06;;;7.03;65.39
37066;BME280;22981;43.080;25.550;2022-11-04T05:48:01;99591.22;;;7.12;65.28
37066;BME280;22981;43.080;25.550;2022-11-04T05:50:30;99594.50;;;7.14;65.28
37066;BME280;22981;43.080;25.550;2022-11-04T05:52:59;99600.98;;;7.16;65.25
37066;BME280;22981;43.080;25.550;2022-11-04T05:55:27;99599.00;;;7.14;65.32
37066;BME280;22981;43.080;25.550;2022-11-04T05:57:55;99600.41;;;7.10;65.36
37066;BME280;22981;43.080;25.550;2022-11-04T06:00:25;99606.14;;;7.07;65.47
37066;BME280;22981;43.080;25.550;2022-11-04T06:02:54;99607.38;;;7.11;65.51
37066;BME280;22981;43.080;25.550;2022-11-04T06:05:25;99615.22;;;7.19;65.50
37066;BME280;22981;43.080;25.550;2022-11-04T06:07:54;99609.23;;;7.27;65.33
37066;BME280;22981;43.080;25.550;2022-11-04T06:10:22;99614.38;;;7.29;65.29
37066;BME280;22981;43.080;25.550;2022-11-04T06:12:50;99615.30;;;7.32;65.35
37066;BME280;22981;43.080;25.550;2022-11-04T06:15:18;99620.08;;;7.37;65.34
37066;BME280;22981;43.080;25.550;2022-11-04T06:17:45;99610.98;;;7.42;65.24
37066;BME280;22981;43.080;25.550;2022-11-04T06:20:13;99619.13;;;7.51;65.25
37066;BME280;22981;43.080;25.550;2022-11-04T06:22:40;99615.41;;;7.63;65.09
37066;BME280;22981;43.080;25.550;2022-11-04T06:25:08;99606.97;;;7.76;65.07
37066;BME280;22981;43.080;25.550;2022-11-04T06:27:36;99614.63;;;7.93;64.90
37066;BME280;22981;43.080;25.550;2022-11-04T06:30:04;99614.86;;;8.04;64.87
37066;BME280;22981;43.080;25.550;2022-11-04T06:32:32;99615.55;;;8.20;64.80
37066;BME280;22981;43.080;25.550;2022-11-04T06:35:00;99609.67;;;8.38;64.50
37066;BME280;22981;43.080;25.550;2022-11-04T06:37:27;99618.92;;;8.42;64.39
37066;BME280;22981;43.080;25.550;2022-11-04T06:39:55;99612.67;;;8.52;64.45
37066;BME280;22981;43.080;25.550;2022-11-04T06:42:22;99612.91;;;8.64;64.40
37066;BME280;22981;43.080;25.550;2022-11-04T06:44:52;99612.83;;;8.74;64.34
37066;BME280;22981;43.080;25.550;2022-11-04T06:47:19;99615.69;;;8.86;64.23
37066;BME280;22981;43.080;25.550;2022-11-04T06:49:47;99612.94;;;8.97;64.20
37066;BME280;22981;43.080;25.550;2022-11-04T06:52:14;99610.26;;;9.10;64.08
37066;BME280;22981;43.080;25.550;2022-11-04T06:54:42;99608.83;;;9.21;64.10
37066;BME280;22981;43.080;25.550;2022-11-04T06:57:10;99610.14;;;9.34;63.94
37066;BME280;22981;43.080;25.550;2022-11-04T06:59:38;99607.96;;;9.47;63.83
37066;BME280;22981;43.080;25.550;2022-11-04T07:02:06;99608.94;;;9.59;63.75
37066;BME280;22981;43.080;25.550;2022-11-04T07:04:33;99604.69;;;9.74;63.72
37066;BME280;22981;43.080;25.550;2022-11-04T07:07:02;99601.62;;;9.93;63.60
37066;BME280;22981;43.080;25.550;2022-11-04T07:09:30;99603.03;;;10.02;63.51
37066;BME280;22981;43.080;25.550;2022-11-04T07:11:57;99591.89;;;10.12;63.57
37066;BME280;22981;43.080;25.550;2022-11-04T07:14:25;99594.53;;;10.25;63.58
37066;BME280;22981;43.080;25.550;2022-11-04T07:16:52;99586.20;;;10.40;63.66
37066;BME280;22981;43.080;25.550;2022-11-04T07:19:20;99585.85;;;10.61;63.41
37066;BME280;22981;43.080;25.550;2022-11-04T07:21:47;99581.53;;;10.76;63.13
37066;BME280;22981;43.080;25.550;2022-11-04T07:24:15;99573.84;;;10.95;63.04
37066;BME280;22981;43.080;25.550;2022-11-04T07:26:43;99566.98;;;11.15;62.74
37066;BME280;22981;43.080;25.550;2022-11-04T07:29:10;99565.22;;;11.27;62.53
37066;BME280;22981;43.080;25.550;2022-11-04T07:31:38;99562.83;;;11.38;62.55
37066;BME280;22981;43.080;25.550;2022-11-04T07:34:05;99555.63;;;11.57;62.35
37066;BME280;22981;43.080;25.550;2022-11-04T07:36:33;99554.56;;;11.76;62.09
37066;BME280;22981;43.080;25.550;2022-11-04T07:39:00;99553.54;;;11.95;61.90
37066;BME280;22981;43.080;25.550;2022-11-04T07:41:28;99543.33;;;12.16;61.58
37066;BME280;22981;43.080;25.550;2022-11-04T07:43:56;99529.64;;;12.36;61.33
37066;BME280;22981;43.080;25.550;2022-11-04T07:46:24;99524.19;;;12.54;60.90
37066;BME280;22981;43.080;25.550;2022-11-04T07:48:55;99528.31;;;12.68;60.66
37066;BME280;22981;43.080;25.550;2022-11-04T07:51:21;99526.50;;;12.83;60.47
37066;BME280;22981;43.080;25.550;2022-11-04T07:53:49;99515.34;;;13.00;60.18
37066;BME280;22981;43.080;25.550;2022-11-04T07:56:16;99513.05;;;13.18;59.94
37066;BME280;22981;43.080;25.550;2022-11-04T07:58:44;99505.47;;;13.39;59.51
37066;BME280;22981;43.080;25.550;2022-11-04T08:01:14;99504.14;;;13.53;59.29
37066;BME280;22981;43.080;25.550;2022-11-04T08:03:43;99504.02;;;13.74;59.10
37066;BME280;22981;43.080;25.550;2022-11-04T08:06:12;99507.17;;;13.97;58.75
37066;BME280;22981;43.080;25.550;2022-11-04T08:08:40;99491.28;;;14.12;58.42
37066;BME280;22981;43.080;25.550;2022-11-04T08:11:20;99495.69;;;14.33;58.22
37066;BME280;22981;43.080;25.550;2022-11-04T08:13:50;99494.44;;;14.52;57.73
37066;BME280;22981;43.080;25.550;2022-11-04T08:16:19;99491.49;;;14.70;57.54
37066;BME280;22981;43.080;25.550;2022-11-04T08:18:48;99487.44;;;14.87;57.29
37066;BME280;22981;43.080;25.550;2022-11-04T08:21:19;99477.18;;;15.06;57.13
37066;BME280;22981;43.080;25.550;2022-11-04T08:23:46;99468.57;;;15.28;56.61
37066;BME280;22981;43.080;25.550;2022-11-04T08:26:17;99466.45;;;15.52;56.24
37066;BME280;22981;43.080;25.550;2022-11-04T08:28:45;99457.59;;;15.79;55.77
37066;BME280;22981;43.080;25.550;2022-11-04T08:31:21;99451.69;;;16.07;55.33
37066;BME280;22981;43.080;25.550;2022-11-04T08:33:53;99453.53;;;16.36;54.90
37066;BME280;22981;43.080;25.550;2022-11-04T08:36:24;99438.66;;;16.68;54.56
37066;BME280;22981;43.080;25.550;2022-11-04T08:38:52;99436.44;;;16.99;54.17
37066;BME280;22981;43.080;25.550;2022-11-04T08:41:23;99433.09;;;17.32;53.61
37066;BME280;22981;43.080;25.550;2022-11-04T08:43:50;99432.38;;;17.62;52.94
37066;BME280;22981;43.080;25.550;2022-11-04T08:46:18;99425.96;;;17.94;52.07
37066;BME280;22981;43.080;25.550;2022-11-04T08:48:46;99424.66;;;18.24;51.45
37066;BME280;22981;43.080;25.550;2022-11-04T08:51:21;99417.88;;;18.50;50.81
37066;BME280;22981;43.080;25.550;2022-11-04T08:53:45;99412.41;;;18.75;50.16
37066;BME280;22981;43.080;25.550;2022-11-04T08:56:19;99409.09;;;19.04;49.54
37066;BME280;22981;43.080;25.550;2022-11-04T08:58:47;99406.83;;;19.26;48.88
37066;BME280;22981;43.080;25.550;2022-11-04T09:01:16;99395.62;;;19.43;48.30
37066;BME280;22981;43.080;25.550;2022-11-04T09:03:44;99403.41;;;19.60;47.75
37066;BME280;22981;43.080;25.550;2022-11-04T09:06:15;99394.39;;;19.75;47.44
37066;BME280;22981;43.080;25.550;2022-11-04T09:08:42;99389.38;;;19.92;46.95
37066;BME280;22981;43.080;25.550;2022-11-04T09:11:11;99380.84;;;20.07;46.44
37066;BME280;22981;43.080;25.550;2022-11-04T09:13:39;99381.30;;;20.16;46.03
37066;BME280;22981;43.080;25.550;2022-11-04T09:16:08;99382.30;;;20.28;46.00
37066;BME280;22981;43.080;25.550;2022-11-04T09:18:36;99376.99;;;20.42;45.57
37066;BME280;22981;43.080;25.550;2022-11-04T09:21:05;99369.35;;;20.49;45.01
37066;BME280;22981;43.080;25.550;2022-11-04T09:23:33;99368.98;;;20.58;44.90
37066;BME280;22981;43.080;25.550;2022-11-04T09:26:09;99360.20;;;20.66;44.47
37066;BME280;22981;43.080;25.550;2022-11-04T09:28:38;99360.13;;;20.74;44.30
37066;BME280;22981;43.080;25.550;2022-11-04T09:31:13;99358.13;;;20.82;44.22
37066;BME280;22981;43.080;25.550;2022-11-04T09:33:36;99351.19;;;20.92;43.85
37066;BME280;22981;43.080;25.550;2022-11-04T09:36:04;99356.62;;;20.95;43.66
37066;BME280;22981;43.080;25.550;2022-11-04T09:38:33;99354.31;;;21.05;43.52
37066;BME280;22981;43.080;25.550;2022-11-04T09:44:16;99349.27;;;21.17;42.99
37066;BME280;22981;43.080;25.550;2022-11-04T09:46:41;99344.23;;;21.26;42.84
37066;BME280;22981;43.080;25.550;2022-11-04T09:49:12;99338.20;;;21.30;42.72
37066;BME280;22981;43.080;25.550;2022-11-04T09:51:42;99334.30;;;21.38;42.40
37066;BME280;22981;43.080;25.550;2022-11-04T09:54:22;99325.80;;;21.42;42.26
37066;BME280;22981;43.080;25.550;2022-11-04T09:56:51;99314.50;;;21.52;41.88
37066;BME280;22981;43.080;25.550;2022-11-04T09:59:27;99315.55;;;21.53;41.77
37066;BME280;22981;43.080;25.550;2022-11-04T10:10:45;99292.05;;;21.76;41.33
37066;BME280;22981;43.080;25.550;2022-11-04T10:13:42;99286.77;;;21.82;41.09
37066;BME280;22981;43.080;25.550;2022-11-04T10:16:22;99281.84;;;21.84;40.79
37066;BME280;22981;43.080;25.550;2022-11-04T10:19:07;99275.98;;;21.91;40.44
37066;BME280;22981;43.080;25.550;2022-11-04T10:21:44;99263.08;;;21.96;40.41
37066;BME280;22981;43.080;25.550;2022-11-04T10:24:32;99263.08;;;21.96;40.40
37066;BME280;22981;43.080;25.550;2022-11-04T10:26:59;99263.04;;;21.99;40.38
37066;BME280;22981;43.080;25.550;2022-11-04T10:29:35;99263.04;;;21.99;40.30
37066;BME280;22981;43.080;25.550;2022-11-04T10:32:13;99247.91;;;22.07;39.98
37066;BME280;22981;43.080;25.550;2022-11-04T10:34:46;99246.17;;;22.13;39.63
37066;BME280;22981;43.080;25.550;2022-11-04T10:37:13;99243.38;;;22.18;39.66
37066;BME280;22981;43.080;25.550;2022-11-04T10:39:43;99241.84;;;22.26;39.41
37066;BME280;22981;43.080;25.550;2022-11-04T10:42:14;99228.97;;;22.29;39.43
37066;BME280;22981;43.080;25.550;2022-11-04T10:44:42;99228.38;;;22.32;39.36
37066;BME280;22981;43.080;25.550;2022-11-04T10:50:21;99226.77;;;22.45;39.00
37066;BME280;22981;43.080;25.550;2022-11-04T10:52:39;99215.19;;;22.50;38.94
37066;BME280;22981;43.080;25.550;2022-11-04T10:55:38;99211.89;;;22.51;38.78
37066;BME280;22981;43.080;25.550;2022-11-04T10:57:44;99206.40;;;22.54;38.66
37066;BME280;22981;43.080;25.550;2022-11-04T11:00:30;99208.70;;;22.60;38.58
37066;BME280;22981;43.080;25.550;2022-11-04T11:02:48;99200.72;;;22.64;38.63
37066;BME280;22981;43.080;25.550;2022-11-04T11:07:48;99195.70;;;22.68;38.29
37066;BME280;22981;43.080;25.550;2022-11-04T11:10:22;99195.77;;;22.66;38.28
37066;BME280;22981;43.080;25.550;2022-11-04T11:13:04;99195.52;;;22.51;38.32
37066;BME280;22981;43.080;25.550;2022-11-04T11:15:37;99196.20;;;22.45;38.30
37066;BME280;22981;43.080;25.550;2022-11-04T11:18:11;99192.55;;;22.50;38.13
37066;BME280;22981;43.080;25.550;2022-11-04T11:20:39;99198.06;;;22.61;37.84
37066;BME280;22981;43.080;25.550;2022-11-04T11:25:54;99189.64;;;22.71;37.65
37066;BME280;22981;43.080;25.550;2022-11-04T11:28:23;99187.52;;;22.68;37.38
37066;BME280;22981;43.080;25.550;2022-11-04T11:33:27;99186.75;;;22.65;37.32
37066;BME280;22981;43.080;25.550;2022-11-04T11:36:02;99184.14;;;22.60;37.34
37066;BME280;22981;43.080;25.550;2022-11-04T11:38:32;99182.25;;;22.47;37.80
37066;BME280;22981;43.080;25.550;2022-11-04T11:41:11;99184.64;;;22.37;37.81
37066;BME280;22981;43.080;25.550;2022-11-04T11:43:49;99183.27;;;22.37;37.61
37066;BME280;22981;43.080;25.550;2022-11-04T11:46:22;99178.58;;;22.40;37.49
37066;BME280;22981;43.080;25.550;2022-11-04T11:48:53;99176.91;;;22.42;37.51
37066;BME280;22981;43.080;25.550;2022-11-04T11:51:37;99177.22;;;22.40;37.17
37066;BME280;22981;43.080;25.550;2022-11-04T11:56:46;99176.34;;;22.42;37.44
37066;BME280;22981;43.080;25.550;2022-11-04T11:59:32;99166.31;;;22.40;37.33
37066;BME280;22981;43.080;25.550;2022-11-04T12:04:50;99164.33;;;22.30;37.19
37066;BME280;22981;43.080;25.550;2022-11-04T12:12:47;99151.71;;;22.84;36.51
37066;BME280;22981;43.080;25.550;2022-11-04T12:21:00;99148.88;;;22.64;36.34
37066;BME280;22981;43.080;25.550;2022-11-04T12:26:32;99142.50;;;22.18;36.92
37066;BME280;22981;43.080;25.550;2022-11-04T12:29:18;99145.03;;;21.98;37.19
37066;BME280;22981;43.080;25.550;2022-11-04T12:31:56;99137.48;;;21.79;37.47
37066;BME280;22981;43.080;25.550;2022-11-04T12:40:02;99136.00;;;21.57;38.05
37066;BME280;22981;43.080;25.550;2022-11-04T12:48:02;99123.12;;;22.04;37.63
37066;BME280;22981;43.080;25.550;2022-11-04T12:51:20;99125.70;;;22.11;37.44
37066;BME280;22981;43.080;25.550;2022-11-04T12:56:13;99122.31;;;22.03;37.69
37066;BME280;22981;43.080;25.550;2022-11-04T12:59:06;99115.05;;;21.98;37.80
37066;BME280;22981;43.080;25.550;2022-11-04T13:01:44;99110.06;;;21.89;37.92
37066;BME280;22981;43.080;25.550;2022-11-04T13:04:22;99107.13;;;21.86;37.96
37066;BME280;22981;43.080;25.550;2022-11-04T13:09:45;99100.41;;;21.94;37.94
37066;BME280;22981;43.080;25.550;2022-11-04T13:12:15;99102.58;;;21.95;38.02
37066;BME280;22981;43.080;25.550;2022-11-04T13:14:51;99098.00;;;21.93;38.02
37066;BME280;22981;43.080;25.550;2022-11-04T13:17:25;99109.85;;;21.86;38.04
37066;BME280;22981;43.080;25.550;2022-11-04T13:19:50;99104.05;;;21.90;37.93
37066;BME280;22981;43.080;25.550;2022-11-04T13:22:28;99102.34;;;21.94;37.80
37066;BME280;22981;43.080;25.550;2022-11-04T13:27:45;99102.28;;;22.10;37.38
37066;BME280;22981;43.080;25.550;2022-11-04T13:33:26;99104.37;;;22.16;37.13
37066;BME280;22981;43.080;25.550;2022-11-04T13:36:05;99098.95;;;22.13;36.98
37066;BME280;22981;43.080;25.550;2022-11-04T13:38:36;99100.40;;;22.08;36.85
37066;BME280;22981;43.080;25.550;2022-11-04T13:44:01;99097.70;;;21.81;37.37
37066;BME280;22981;43.080;25.550;2022-11-04T13:46:32;99099.75;;;21.59;37.60
37066;BME280;22981;43.080;25.550;2022-11-04T13:51:36;99102.78;;;21.24;38.19
37066;BME280;22981;43.080;25.550;2022-11-04T13:54:05;99107.42;;;21.08;38.43
37066;BME280;22981;43.080;25.550;2022-11-04T13:56:36;99106.27;;;20.95;38.57
37066;BME280;22981;43.080;25.550;2022-11-04T14:04:39;99098.62;;;20.59;39.18
37066;BME280;22981;43.080;25.550;2022-11-04T14:07:09;99100.75;;;20.43;39.35
37066;BME280;22981;43.080;25.550;2022-11-04T14:14:54;99097.61;;;20.12;39.99
37066;BME280;22981;43.080;25.550;2022-11-04T14:20:24;99103.03;;;19.91;40.45
37066;BME280;22981;43.080;25.550;2022-11-04T14:22:56;99094.99;;;19.83;40.61
37066;BME280;22981;43.080;25.550;2022-11-04T14:25:36;99091.55;;;19.75;40.76
37066;BME280;22981;43.080;25.550;2022-11-04T14:28:16;99090.27;;;19.67;40.99
37066;BME280;22981;43.080;25.550;2022-11-04T14:33:38;99089.08;;;19.49;41.33
37066;BME280;22981;43.080;25.550;2022-11-04T14:38:54;99080.52;;;19.35;41.65
37066;BME280;22981;43.080;25.550;2022-11-04T14:46:44;99071.50;;;19.15;42.11
37066;BME280;22981;43.080;25.550;2022-11-04T14:52:15;99074.33;;;19.00;42.50
37066;BME280;22981;43.080;25.550;2022-11-04T14:54:42;99077.39;;;18.91;42.66
37066;BME280;22981;43.080;25.550;2022-11-04T14:57:19;99079.34;;;18.85;42.82
37066;BME280;22981;43.080;25.550;2022-11-04T14:59:46;99081.27;;;18.80;42.98
37066;BME280;22981;43.080;25.550;2022-11-04T15:02:23;99086.22;;;18.72;43.18
37066;BME280;22981;43.080;25.550;2022-11-04T15:04:54;99084.88;;;18.65;43.37
37066;BME280;22981;43.080;25.550;2022-11-04T15:07:38;99086.03;;;18.56;43.54
37066;BME280;22981;43.080;25.550;2022-11-04T15:10:27;99085.26;;;18.50;43.73
37066;BME280;22981;43.080;25.550;2022-11-04T15:13:00;99088.02;;;18.43;43.84
37066;BME280;22981;43.080;25.550;2022-11-04T15:20:30;99094.08;;;18.19;44.46
37066;BME280;22981;43.080;25.550;2022-11-04T15:23:01;99089.79;;;18.16;44.56
37066;BME280;22981;43.080;25.550;2022-11-04T15:25:29;99090.59;;;18.14;44.63
37066;BME280;22981;43.080;25.550;2022-11-04T15:27:58;99082.20;;;18.10;44.76
37066;BME280;22981;43.080;25.550;2022-11-04T15:30:28;99067.62;;;18.01;44.89
37066;BME280;22981;43.080;25.550;2022-11-04T15:33:00;99081.43;;;18.05;45.03
37066;BME280;22981;43.080;25.550;2022-11-04T15:35:30;99082.81;;;17.99;45.19